Aymeric.

Aymeric.

  • 19 years of military career in naval aviation.
  • Aircraft flown: Super Etendard, F/A-18 (US Navy) Hornet and Rafale (Marine)
  • 500 landings including a hundred at night on 4 different aircraft carriers (Foch, CDG, Truman and JFK)
  • Leader of the Fly&Fun patrol since 2015
  • Head of the ATO L39, instructor and pilot examiner
  • Airline pilot at Air France

See all news.

Fighter Jet / Helicopter / Simulator*
Fighter Jet
METAR:

LFQA 300300Z AUTO 27004KT 9999 FEW011 10/10 Q1008


live view of the airfield
invoicing legal Notice privacy policy
Cochet Concept
cx